createdAt,value
2017-03-17T00:00:06.551Z,91.60
2017-03-17T00:01:06.332Z,91.70
2017-03-17T00:02:06.081Z,91.60
2017-03-17T00:03:05.834Z,91.70
2017-03-17T00:04:05.600Z,91.70
2017-03-17T00:05:05.352Z,91.70
2017-03-17T00:06:05.126Z,91.70
2017-03-17T00:07:04.893Z,91.80
2017-03-17T00:08:04.683Z,91.90
2017-03-17T00:09:04.637Z,91.90
2017-03-17T00:10:04.430Z,91.90
2017-03-17T00:11:04.178Z,91.90
2017-03-17T00:12:03.949Z,91.90
2017-03-17T00:13:03.721Z,91.90
2017-03-17T00:14:03.514Z,92.00
2017-03-17T00:15:03.310Z,92.00
2017-03-17T00:16:03.104Z,92.20
2017-03-17T00:17:03.650Z,92.20
2017-03-17T00:18:03.409Z,92.30
2017-03-17T00:19:03.200Z,92.30
2017-03-17T00:20:03.039Z,92.40
2017-03-17T00:21:02.829Z,92.50
2017-03-17T00:22:02.610Z,92.70
2017-03-17T00:23:02.359Z,92.90
2017-03-17T00:24:02.200Z,93.00
2017-03-17T00:25:01.961Z,93.10
2017-03-17T00:26:01.694Z,93.40
2017-03-17T00:27:01.475Z,93.50
2017-03-17T00:28:01.220Z,93.70
2017-03-17T00:29:01.191Z,93.80
2017-03-17T00:30:00.995Z,93.90
2017-03-17T00:31:00.789Z,94.20
2017-03-17T00:32:00.602Z,94.40
2017-03-17T00:33:00.357Z,94.60
2017-03-17T00:34:00.108Z,94.70
2017-03-17T00:35:00.642Z,94.80
2017-03-17T00:36:00.434Z,94.80
2017-03-17T00:37:00.252Z,95.00
2017-03-17T00:38:00.044Z,95.10
2017-03-17T00:38:59.827Z,95.20
2017-03-17T00:39:59.593Z,95.40
2017-03-17T00:40:59.380Z,95.50
2017-03-17T00:41:59.258Z,95.60
2017-03-17T00:42:59.005Z,95.80
2017-03-17T00:43:58.777Z,95.90
2017-03-17T00:44:58.591Z,96.00
2017-03-17T00:45:58.363Z,96.20
2017-03-17T00:46:58.149Z,96.30
2017-03-17T00:47:57.960Z,96.50
2017-03-17T00:48:57.774Z,96.60
2017-03-17T00:49:57.606Z,96.70
2017-03-17T00:50:57.343Z,96.90
2017-03-17T00:51:57.147Z,97.00
2017-03-17T00:52:56.994Z,97.20
2017-03-17T00:53:57.545Z,97.40
2017-03-17T00:54:57.705Z,97.60
2017-03-17T00:55:57.467Z,97.60
2017-03-17T00:57:02.502Z,97.70
2017-03-17T00:58:02.260Z,97.70
2017-03-17T00:59:02.028Z,97.90
2017-03-17T01:00:01.781Z,98.00
2017-03-17T01:01:01.644Z,98.10
2017-03-17T01:02:01.410Z,98.20
2017-03-17T01:03:01.195Z,98.30
2017-03-17T01:04:00.971Z,98.30
2017-03-17T01:05:00.774Z,98.40
2017-03-17T01:06:00.574Z,98.50
2017-03-17T01:07:00.316Z,98.50
2017-03-17T01:08:00.091Z,98.60
2017-03-17T01:08:59.892Z,98.60
2017-03-17T01:09:59.687Z,98.70
2017-03-17T01:10:59.477Z,98.80
2017-03-17T01:11:59.220Z,98.80
2017-03-17T01:12:58.976Z,98.90
2017-03-17T01:13:58.786Z,98.90
2017-03-17T01:14:58.544Z,99.00
2017-03-17T01:15:58.374Z,99.30
2017-03-17T01:16:58.171Z,99.10
2017-03-17T01:17:58.720Z,99.00
2017-03-17T01:18:58.468Z,99.10
2017-03-17T01:19:58.221Z,99.00
2017-03-17T01:20:57.962Z,99.00
2017-03-17T01:21:57.726Z,98.90
2017-03-17T01:22:57.495Z,98.90
2017-03-17T01:23:58.019Z,98.90
2017-03-17T01:24:58.503Z,99.00
2017-03-17T01:25:58.353Z,98.90
2017-03-17T01:26:58.138Z,98.80
2017-03-17T01:27:58.814Z,98.90
2017-03-17T01:28:58.569Z,98.90
2017-03-17T01:29:58.358Z,98.90
2017-03-17T01:30:58.856Z,98.90
2017-03-17T01:31:58.608Z,98.90
2017-03-17T01:32:58.403Z,98.90
2017-03-17T01:33:58.176Z,98.70
2017-03-17T01:34:57.994Z,98.80
2017-03-17T01:35:57.736Z,98.80
2017-03-17T01:36:57.519Z,98.30
2017-03-17T01:37:57.313Z,98.40
2017-03-17T01:38:57.085Z,98.50
2017-03-17T01:39:56.838Z,98.50
2017-03-17T01:40:56.617Z,98.30
2017-03-17T01:41:56.376Z,98.20
2017-03-17T01:42:56.153Z,98.20
2017-03-17T01:43:55.989Z,98.30
2017-03-17T01:44:56.500Z,98.20
2017-03-17T01:45:56.255Z,98.30
2017-03-17T01:46:56.035Z,98.10
2017-03-17T01:47:55.797Z,98.00
2017-03-17T01:48:55.597Z,98.10
2017-03-17T01:49:55.331Z,98.00
2017-03-17T01:50:55.101Z,97.90
2017-03-17T01:51:54.844Z,97.80
2017-03-17T01:52:54.589Z,97.80
2017-03-17T01:53:54.334Z,97.80
2017-03-17T01:54:54.099Z,97.80
2017-03-17T01:55:53.924Z,97.70
2017-03-17T01:56:53.721Z,97.60
2017-03-17T01:57:53.542Z,97.60
2017-03-17T01:58:53.339Z,97.50
2017-03-17T01:59:53.155Z,97.60
2017-03-17T02:00:52.908Z,97.40
2017-03-17T02:01:52.672Z,97.50
2017-03-17T02:02:52.442Z,97.40
2017-03-17T02:03:52.183Z,97.40
2017-03-17T02:04:51.918Z,97.40
2017-03-17T02:05:51.757Z,97.30
2017-03-17T02:06:51.502Z,97.30
2017-03-17T02:07:51.247Z,97.30
2017-03-17T02:08:51.008Z,97.30
2017-03-17T02:09:50.780Z,97.30
2017-03-17T02:10:50.560Z,97.30
2017-03-17T02:11:50.302Z,97.30
2017-03-17T02:12:50.030Z,97.30
2017-03-17T02:13:49.804Z,97.30
2017-03-17T02:14:49.604Z,97.30
2017-03-17T02:15:49.348Z,97.30
2017-03-17T02:16:49.099Z,97.20
2017-03-17T02:17:48.843Z,97.30
2017-03-17T02:18:48.583Z,97.20
2017-03-17T02:19:48.324Z,97.20
2017-03-17T02:20:48.094Z,97.10
2017-03-17T02:21:47.910Z,97.10
2017-03-17T02:22:48.961Z,97.10
2017-03-17T02:23:48.692Z,97.10
2017-03-17T02:24:48.436Z,97.10
2017-03-17T02:25:48.208Z,97.20
2017-03-17T02:26:47.987Z,97.20
2017-03-17T02:27:47.736Z,97.20
2017-03-17T02:28:47.586Z,97.20
2017-03-17T02:29:47.341Z,97.10
2017-03-17T02:30:47.131Z,97.10
2017-03-17T02:31:46.901Z,97.20
2017-03-17T02:32:46.706Z,97.20
2017-03-17T02:33:46.460Z,97.20
2017-03-17T02:34:46.201Z,97.50
2017-03-17T02:35:45.947Z,97.10
2017-03-17T02:36:45.682Z,97.10
2017-03-17T02:37:45.473Z,97.10
2017-03-17T02:38:45.258Z,97.20
2017-03-17T02:39:44.994Z,97.20
2017-03-17T02:40:44.776Z,97.30
2017-03-17T02:41:44.508Z,97.20
2017-03-17T02:42:44.247Z,97.20
2017-03-17T02:43:44.023Z,97.20
2017-03-17T02:44:43.800Z,97.10
2017-03-17T02:45:43.604Z,97.20
2017-03-17T02:46:43.328Z,97.20
2017-03-17T02:47:43.077Z,97.20
2017-03-17T02:48:42.856Z,97.10
2017-03-17T02:49:42.619Z,97.10
2017-03-17T02:50:42.360Z,97.20
2017-03-17T02:51:42.136Z,97.20
2017-03-17T02:52:41.914Z,97.20
2017-03-17T02:53:42.051Z,97.20
2017-03-17T02:54:41.877Z,97.20
2017-03-17T02:55:41.628Z,97.20
2017-03-17T02:56:41.418Z,97.30
2017-03-17T02:57:41.128Z,97.30
2017-03-17T02:58:40.909Z,97.20
2017-03-17T02:59:41.449Z,97.20
2017-03-17T03:00:41.219Z,97.30
2017-03-17T03:01:41.788Z,97.30
2017-03-17T03:02:41.540Z,97.30
2017-03-17T03:03:41.302Z,97.40
2017-03-17T03:04:41.068Z,97.40
2017-03-17T03:05:40.850Z,97.50
2017-03-17T03:06:40.648Z,97.50
2017-03-17T03:07:47.224Z,97.60
2017-03-17T03:08:46.967Z,97.60
2017-03-17T03:09:46.765Z,97.60
2017-03-17T03:10:46.575Z,97.70
2017-03-17T03:11:46.358Z,97.70
2017-03-17T03:12:46.140Z,97.80
2017-03-17T03:13:46.092Z,97.80
2017-03-17T03:14:45.848Z,97.70
2017-03-17T03:15:45.781Z,97.70
2017-03-17T03:16:45.525Z,97.80
2017-03-17T03:17:45.305Z,97.80
2017-03-17T03:18:45.248Z,97.90
2017-03-17T03:19:45.015Z,97.90
2017-03-17T03:20:44.836Z,97.80
2017-03-17T03:21:44.603Z,97.70
2017-03-17T03:22:44.588Z,97.70
2017-03-17T03:23:44.354Z,97.70
2017-03-17T03:24:44.096Z,97.80
2017-03-17T03:25:43.873Z,97.70
2017-03-17T03:26:43.603Z,97.70
2017-03-17T03:27:43.371Z,97.70
2017-03-17T03:28:43.127Z,97.70
2017-03-17T03:29:42.934Z,97.80
2017-03-17T03:30:42.685Z,97.70
2017-03-17T03:31:42.451Z,97.70
2017-03-17T03:32:42.239Z,97.70
2017-03-17T03:33:41.974Z,97.80
2017-03-17T03:34:41.766Z,97.80
2017-03-17T03:35:41.533Z,97.80
2017-03-17T03:36:41.270Z,97.80
2017-03-17T03:37:41.074Z,98.00
2017-03-17T03:38:41.537Z,97.90
2017-03-17T03:39:41.272Z,97.80
2017-03-17T03:40:41.111Z,97.80
2017-03-17T03:41:40.867Z,97.90
2017-03-17T03:42:40.610Z,97.90
2017-03-17T03:43:40.342Z,97.90
2017-03-17T03:44:40.081Z,97.90
2017-03-17T03:45:39.814Z,97.90
2017-03-17T03:46:39.604Z,97.80
2017-03-17T03:47:39.361Z,97.80
2017-03-17T03:48:39.102Z,97.80
2017-03-17T03:49:38.834Z,97.70
2017-03-17T03:50:38.625Z,97.70
2017-03-17T03:51:38.370Z,97.80
2017-03-17T03:52:38.133Z,97.80
2017-03-17T03:53:38.613Z,97.80
2017-03-17T03:54:38.362Z,97.90
2017-03-17T03:55:38.091Z,97.70
2017-03-17T03:56:37.820Z,97.60
2017-03-17T03:57:37.567Z,97.60
2017-03-17T03:58:37.323Z,97.70
2017-03-17T03:59:37.052Z,97.70
2017-03-17T04:00:36.804Z,97.60
2017-03-17T04:01:36.612Z,97.60
2017-03-17T04:02:37.084Z,97.60
2017-03-17T04:03:37.587Z,97.50
2017-03-17T04:04:37.389Z,97.50
2017-03-17T04:05:37.216Z,97.50
2017-03-17T04:06:36.975Z,97.40
2017-03-17T04:07:36.732Z,97.40
2017-03-17T04:08:36.467Z,97.30
2017-03-17T04:09:36.290Z,97.30
2017-03-17T04:10:36.022Z,97.30
2017-03-17T04:11:35.766Z,97.30
2017-03-17T04:12:35.480Z,97.40
2017-03-17T04:13:35.201Z,97.40
2017-03-17T04:14:35.057Z,97.30
2017-03-17T04:15:34.803Z,97.20
2017-03-17T04:16:34.586Z,97.20
2017-03-17T04:17:34.329Z,97.10
2017-03-17T04:18:34.051Z,97.20
2017-03-17T04:19:33.800Z,97.10
2017-03-17T04:20:33.657Z,97.00
2017-03-17T04:21:33.474Z,97.00
2017-03-17T04:22:33.199Z,97.10
2017-03-17T04:23:32.915Z,96.80
2017-03-17T04:24:32.667Z,96.70
2017-03-17T04:25:32.428Z,96.70
2017-03-17T04:26:32.178Z,96.60
2017-03-17T04:27:31.898Z,96.90
2017-03-17T04:28:31.783Z,96.70
2017-03-17T04:29:31.487Z,96.80
2017-03-17T04:30:31.201Z,96.80
2017-03-17T04:31:30.946Z,96.80
2017-03-17T04:32:30.695Z,96.70
2017-03-17T04:33:30.488Z,96.60
2017-03-17T04:34:30.228Z,96.50
2017-03-17T04:35:30.016Z,96.50
2017-03-17T04:36:29.781Z,96.40
2017-03-17T04:37:29.539Z,95.90
2017-03-17T04:38:29.311Z,95.90
2017-03-17T04:39:29.058Z,96.10
2017-03-17T04:40:29.555Z,95.90
2017-03-17T04:41:29.337Z,96.00
2017-03-17T04:42:29.113Z,95.80
2017-03-17T04:43:28.893Z,95.70
2017-03-17T04:44:28.633Z,95.60
2017-03-17T04:45:28.488Z,95.80
2017-03-17T04:46:29.045Z,95.80
2017-03-17T04:47:28.808Z,95.70
2017-03-17T04:48:28.583Z,95.50
2017-03-17T04:49:28.395Z,95.30
2017-03-17T04:50:28.256Z,95.40
2017-03-17T04:51:28.020Z,95.40
2017-03-17T04:52:27.865Z,95.30
2017-03-17T04:53:27.713Z,95.30
2017-03-17T04:54:28.197Z,95.50
2017-03-17T04:55:27.923Z,95.40
2017-03-17T04:56:27.668Z,95.40
2017-03-17T04:57:27.446Z,95.20
2017-03-17T04:58:27.218Z,95.30
2017-03-17T04:59:26.952Z,95.30
2017-03-17T05:00:26.713Z,95.60
2017-03-17T05:01:26.503Z,95.20
2017-03-17T05:02:26.271Z,95.20
2017-03-17T05:03:26.047Z,95.20
2017-03-17T05:04:25.848Z,95.10
2017-03-17T05:05:26.379Z,95.10
2017-03-17T05:06:26.172Z,95.30
2017-03-17T05:07:25.938Z,95.10
2017-03-17T05:08:25.776Z,95.20
2017-03-17T05:09:26.261Z,95.20
2017-03-17T05:10:26.037Z,95.20
2017-03-17T05:11:25.772Z,95.20
2017-03-17T05:12:25.517Z,95.20
2017-03-17T05:13:25.273Z,95.10
2017-03-17T05:14:25.020Z,95.10
2017-03-17T05:15:24.782Z,95.00
2017-03-17T05:16:24.519Z,95.10
2017-03-17T05:17:24.319Z,95.10
2017-03-17T05:18:24.069Z,95.10
2017-03-17T05:19:23.825Z,95.00
2017-03-17T05:20:23.551Z,95.10
2017-03-17T05:21:23.327Z,95.00
2017-03-17T05:22:23.101Z,95.00
2017-03-17T05:23:23.634Z,94.80
2017-03-17T05:24:23.386Z,94.80
2017-03-17T05:25:23.165Z,94.50
2017-03-17T05:26:22.967Z,94.60
2017-03-17T05:27:22.755Z,94.70
2017-03-17T05:28:22.509Z,94.70
2017-03-17T05:29:22.260Z,94.70
2017-03-17T05:30:22.025Z,94.50
2017-03-17T05:31:21.765Z,94.60
2017-03-17T05:32:21.550Z,94.60
2017-03-17T05:33:21.321Z,94.70
2017-03-17T05:34:28.269Z,94.70
2017-03-17T05:35:28.001Z,94.60
2017-03-17T05:36:27.839Z,94.60
2017-03-17T05:37:28.236Z,94.70
2017-03-17T05:38:28.035Z,94.70
2017-03-17T05:39:27.805Z,94.60
2017-03-17T05:40:27.637Z,94.60
2017-03-17T05:41:27.359Z,94.60
2017-03-17T05:42:27.287Z,94.60
2017-03-17T05:43:27.073Z,94.50
2017-03-17T05:44:27.007Z,94.40
2017-03-17T05:45:26.768Z,94.50
2017-03-17T05:46:26.508Z,94.50
2017-03-17T05:47:26.314Z,94.40
2017-03-17T05:48:26.159Z,94.30
2017-03-17T05:49:26.420Z,94.30
2017-03-17T05:50:26.261Z,94.50
2017-03-17T05:51:26.032Z,94.40
2017-03-17T05:52:25.900Z,94.30
2017-03-17T05:53:25.626Z,93.90
2017-03-17T05:54:25.384Z,93.80
2017-03-17T05:55:25.124Z,93.90
2017-03-17T05:56:24.870Z,93.80
2017-03-17T05:57:25.004Z,93.80
2017-03-17T05:58:24.807Z,93.70
2017-03-17T05:59:24.602Z,93.80
2017-03-17T06:00:24.394Z,93.80
2017-03-17T06:01:24.213Z,93.80
2017-03-17T06:02:23.988Z,93.80
2017-03-17T06:03:27.965Z,93.70
2017-03-17T06:04:27.701Z,93.50
2017-03-17T06:05:27.418Z,93.50
2017-03-17T06:06:27.156Z,93.50
2017-03-17T06:07:27.704Z,93.50
2017-03-17T06:08:27.455Z,93.60
2017-03-17T06:09:27.244Z,93.60
2017-03-17T06:10:26.983Z,93.70
2017-03-17T06:11:27.463Z,93.80
2017-03-17T06:12:27.589Z,93.70
2017-03-17T06:13:27.860Z,93.70
2017-03-17T06:14:27.643Z,93.50
2017-03-17T06:15:27.408Z,93.40
2017-03-17T06:16:27.231Z,93.30
2017-03-17T06:17:27.020Z,93.50
2017-03-17T06:18:26.800Z,93.50
2017-03-17T06:19:27.603Z,93.50
2017-03-17T06:20:27.413Z,93.40
2017-03-17T06:21:40.948Z,93.50
2017-03-17T06:22:42.366Z,93.30
2017-03-17T06:23:42.720Z,93.10
2017-03-17T06:24:44.606Z,93.00
2017-03-17T06:25:44.437Z,92.90
2017-03-17T06:26:44.218Z,93.00
2017-03-17T06:27:44.009Z,92.80
2017-03-17T06:28:43.862Z,92.70
2017-03-17T06:29:43.675Z,92.50
2017-03-17T06:30:43.437Z,92.50
2017-03-17T06:31:43.248Z,92.50
2017-03-17T06:32:43.061Z,92.40
2017-03-17T06:33:42.903Z,92.30
2017-03-17T06:34:42.672Z,92.00
2017-03-17T06:35:43.204Z,92.40
2017-03-17T06:36:43.760Z,92.40
2017-03-17T06:37:43.581Z,92.40
2017-03-17T06:38:43.354Z,92.50
2017-03-17T06:39:43.885Z,92.20
2017-03-17T06:40:43.647Z,92.20
2017-03-17T06:41:43.480Z,92.40
2017-03-17T06:42:43.478Z,92.60
2017-03-17T06:43:44.028Z,92.40
2017-03-17T06:44:43.861Z,92.60
2017-03-17T06:45:43.620Z,92.40
2017-03-17T06:46:43.458Z,92.30
2017-03-17T06:47:43.347Z,92.20
2017-03-17T06:48:43.173Z,92.20
2017-03-17T06:49:42.952Z,92.40
2017-03-17T06:50:42.760Z,92.50
2017-03-17T06:51:42.560Z,92.50
2017-03-17T06:52:42.364Z,92.60
2017-03-17T06:53:42.192Z,92.50
2017-03-17T06:54:42.004Z,92.40
2017-03-17T06:55:41.830Z,92.30
2017-03-17T06:56:41.657Z,92.40
2017-03-17T06:57:41.541Z,92.40
2017-03-17T06:58:41.308Z,92.60
2017-03-17T06:59:41.119Z,92.70
2017-03-17T07:00:40.936Z,92.70
2017-03-17T07:01:40.700Z,92.70
2017-03-17T07:02:40.488Z,92.70
2017-03-17T07:03:40.544Z,92.70
2017-03-17T07:04:41.111Z,92.60
2017-03-17T07:05:40.909Z,92.70
2017-03-17T07:06:40.671Z,92.70
2017-03-17T07:07:41.257Z,92.70
2017-03-17T07:08:41.847Z,93.10
2017-03-17T07:09:41.673Z,93.00
2017-03-17T07:10:41.463Z,93.00
2017-03-17T07:11:41.231Z,93.10
2017-03-17T07:12:41.047Z,93.00
2017-03-17T07:13:41.275Z,93.00
2017-03-17T07:14:41.076Z,93.00
2017-03-17T07:15:40.879Z,93.10
2017-03-17T07:16:40.668Z,93.20
2017-03-17T07:17:40.513Z,93.10
2017-03-17T07:18:40.407Z,93.10
2017-03-17T07:19:40.186Z,92.90
2017-03-17T07:20:40.005Z,92.80
2017-03-17T07:21:39.815Z,92.70
2017-03-17T07:22:39.608Z,92.70
2017-03-17T07:23:39.413Z,92.80
2017-03-17T07:24:39.255Z,92.70
2017-03-17T07:25:39.022Z,92.80
2017-03-17T07:26:38.832Z,92.50
2017-03-17T07:27:39.357Z,92.90
2017-03-17T07:28:39.172Z,92.50
2017-03-17T07:29:38.946Z,92.50
2017-03-17T07:30:38.739Z,92.40
2017-03-17T07:31:38.532Z,92.40
2017-03-17T07:32:38.324Z,92.50
2017-03-17T07:33:38.099Z,92.70
2017-03-17T07:34:37.926Z,92.40
2017-03-17T07:35:37.730Z,92.30
2017-03-17T07:36:37.588Z,92.00
2017-03-17T07:37:38.127Z,92.00
2017-03-17T07:38:37.982Z,92.10
2017-03-17T07:39:37.770Z,92.00
2017-03-17T07:40:37.637Z,91.80
2017-03-17T07:41:37.456Z,91.70
2017-03-17T07:42:37.204Z,91.80
2017-03-17T07:43:36.997Z,91.90
2017-03-17T07:44:36.787Z,91.80
2017-03-17T07:45:36.621Z,91.90
2017-03-17T07:46:36.477Z,91.70
2017-03-17T07:47:37.049Z,91.50
2017-03-17T07:48:36.882Z,91.50
2017-03-17T07:49:36.769Z,91.50
2017-03-17T07:50:36.569Z,91.70
2017-03-17T07:51:36.377Z,91.70
2017-03-17T07:52:36.165Z,91.70
2017-03-17T07:53:36.020Z,91.60
2017-03-17T07:54:35.857Z,91.60
2017-03-17T07:55:36.421Z,91.40
2017-03-17T07:56:36.166Z,91.10
2017-03-17T07:57:35.899Z,91.10
2017-03-17T07:58:35.639Z,91.00
2017-03-17T07:59:36.111Z,91.00
2017-03-17T08:00:35.959Z,91.10
2017-03-17T08:01:35.828Z,91.30
2017-03-17T08:02:44.597Z,91.10
2017-03-17T08:03:45.079Z,91.20
2017-03-17T08:04:44.810Z,91.10
2017-03-17T08:05:44.588Z,91.00
2017-03-17T08:06:44.303Z,91.20
2017-03-17T08:07:44.029Z,91.00
2017-03-17T08:08:43.761Z,91.10
2017-03-17T08:09:43.481Z,91.10
2017-03-17T08:10:43.237Z,91.10
2017-03-17T08:11:43.745Z,91.10
2017-03-17T08:12:44.233Z,91.20
2017-03-17T08:13:43.973Z,91.20
2017-03-17T08:14:45.668Z,91.40
2017-03-17T08:15:45.408Z,91.20
2017-03-17T08:16:45.110Z,91.10
2017-03-17T08:17:44.856Z,91.10
2017-03-17T08:18:44.575Z,91.00
2017-03-17T08:19:44.357Z,91.00
2017-03-17T08:20:44.127Z,90.90
2017-03-17T08:21:44.600Z,90.70
2017-03-17T08:22:44.339Z,90.80
2017-03-17T08:23:44.360Z,90.70
2017-03-17T08:24:44.124Z,90.80
2017-03-17T08:25:43.873Z,90.80
2017-03-17T08:26:43.627Z,90.80
2017-03-17T08:27:43.361Z,90.70
2017-03-17T08:28:43.091Z,90.90
2017-03-17T08:29:42.842Z,90.80
2017-03-17T08:30:42.614Z,90.70
2017-03-17T08:31:42.461Z,90.20
2017-03-17T08:32:42.225Z,90.30
2017-03-17T08:33:41.953Z,90.20
2017-03-17T08:34:41.779Z,90.10
2017-03-17T08:35:41.542Z,90.00
2017-03-17T08:36:41.283Z,88.90
2017-03-17T08:37:41.056Z,89.10
2017-03-17T08:38:40.811Z,89.40
2017-03-17T08:39:40.630Z,89.40
2017-03-17T08:40:41.107Z,90.10
2017-03-17T08:41:40.855Z,89.70
2017-03-17T08:42:41.413Z,89.50
2017-03-17T08:43:41.139Z,88.80
2017-03-17T08:44:40.900Z,88.50
2017-03-17T08:45:40.647Z,88.50
2017-03-17T08:46:40.402Z,89.00
2017-03-17T08:47:40.160Z,89.30
2017-03-17T08:48:39.893Z,88.80
2017-03-17T08:49:39.654Z,88.90
2017-03-17T08:50:39.394Z,87.00
2017-03-17T08:51:39.144Z,86.00
2017-03-17T08:52:38.901Z,86.30
2017-03-17T08:53:39.282Z,86.30
2017-03-17T08:54:39.084Z,86.40
2017-03-17T08:55:39.082Z,85.90
2017-03-17T08:56:38.843Z,85.90
2017-03-17T08:57:38.572Z,86.00
2017-03-17T08:58:38.308Z,85.70
2017-03-17T08:59:38.818Z,85.40
2017-03-17T09:00:39.349Z,85.60
2017-03-17T09:01:39.090Z,86.00
2017-03-17T09:02:38.847Z,86.10
2017-03-17T09:03:39.342Z,86.20
2017-03-17T09:04:39.138Z,86.20
2017-03-17T09:05:38.866Z,86.30
2017-03-17T09:06:38.635Z,86.20
2017-03-17T09:07:38.432Z,86.80
2017-03-17T09:08:38.173Z,86.50
2017-03-17T09:09:38.263Z,87.10
2017-03-17T09:10:37.983Z,86.40
2017-03-17T09:11:37.713Z,85.90
2017-03-17T09:12:37.470Z,85.60
2017-03-17T09:13:37.238Z,85.70
2017-03-17T09:14:36.987Z,85.10
2017-03-17T09:15:36.751Z,85.90
2017-03-17T09:16:36.508Z,85.20
2017-03-17T09:17:36.276Z,85.30
2017-03-17T09:18:36.742Z,85.30
2017-03-17T09:19:36.537Z,85.90
2017-03-17T09:20:36.292Z,85.90
2017-03-17T09:21:36.124Z,85.70
2017-03-17T09:22:35.916Z,85.60
2017-03-17T09:23:35.666Z,84.70
2017-03-17T09:24:35.860Z,84.20
2017-03-17T09:25:35.619Z,83.40
2017-03-17T09:26:35.384Z,83.20
2017-03-17T09:27:35.239Z,83.40
2017-03-17T09:28:34.962Z,82.80
2017-03-17T09:29:34.719Z,82.80
2017-03-17T09:30:34.496Z,83.10
2017-03-17T09:31:34.267Z,81.60
2017-03-17T09:32:34.004Z,81.50
2017-03-17T09:33:33.733Z,80.00
2017-03-17T09:34:33.437Z,80.10
2017-03-17T09:35:33.156Z,80.10
2017-03-17T09:36:32.874Z,80.20
2017-03-17T09:37:32.667Z,80.20
2017-03-17T09:38:32.447Z,80.70
2017-03-17T09:39:32.215Z,80.50
2017-03-17T09:40:32.744Z,80.60
2017-03-17T09:41:33.212Z,80.70
2017-03-17T09:42:32.950Z,81.00
2017-03-17T09:43:32.724Z,80.70
2017-03-17T09:44:32.474Z,81.10
2017-03-17T09:45:32.251Z,80.60
2017-03-17T09:46:31.980Z,78.80
2017-03-17T09:47:31.699Z,78.40
2017-03-17T09:48:31.423Z,78.30
2017-03-17T09:49:31.155Z,78.20
2017-03-17T09:50:30.944Z,78.70
2017-03-17T09:51:30.654Z,79.10
2017-03-17T09:52:30.420Z,78.90
2017-03-17T09:53:30.170Z,78.90
2017-03-17T09:54:29.898Z,78.90
2017-03-17T09:55:29.681Z,79.30
2017-03-17T09:56:29.415Z,78.80
2017-03-17T09:57:29.126Z,78.90
2017-03-17T09:58:28.894Z,79.30
2017-03-17T09:59:28.628Z,79.40
2017-03-17T10:00:28.466Z,80.00
2017-03-17T10:01:28.266Z,79.90
2017-03-17T10:02:28.747Z,79.60
2017-03-17T10:03:28.512Z,80.20
2017-03-17T10:04:28.229Z,80.20
2017-03-17T10:05:27.995Z,80.40
2017-03-17T10:06:27.710Z,80.60
2017-03-17T10:07:27.483Z,80.90
2017-03-17T10:08:27.956Z,81.10
2017-03-17T10:09:28.721Z,81.20
2017-03-17T10:10:28.483Z,81.20
2017-03-17T10:11:28.972Z,81.40
2017-03-17T10:12:28.708Z,80.00
2017-03-17T10:13:28.461Z,79.90
2017-03-17T10:14:28.201Z,79.50
2017-03-17T10:15:27.927Z,79.20
2017-03-17T10:16:27.661Z,79.20
2017-03-17T10:17:27.382Z,79.20
2017-03-17T10:18:27.112Z,80.30
2017-03-17T10:19:26.857Z,80.00
2017-03-17T10:20:26.636Z,80.10
2017-03-17T10:21:29.431Z,80.30
2017-03-17T10:22:29.150Z,80.10
2017-03-17T10:23:28.867Z,79.50
2017-03-17T10:24:28.649Z,79.40
2017-03-17T10:25:28.407Z,79.50
2017-03-17T10:26:28.216Z,79.10
2017-03-17T10:27:28.838Z,78.80
2017-03-17T10:28:28.611Z,78.80
2017-03-17T10:29:28.353Z,78.40
2017-03-17T10:30:28.802Z,78.10
2017-03-17T10:31:28.635Z,77.80
2017-03-17T10:32:28.448Z,76.70
2017-03-17T10:33:28.235Z,76.90
2017-03-17T10:34:27.992Z,76.70
2017-03-17T10:35:27.823Z,76.50
2017-03-17T10:36:27.776Z,76.90
2017-03-17T10:37:31.074Z,76.50
2017-03-17T10:38:30.846Z,77.40
2017-03-17T10:39:30.584Z,77.60
2017-03-17T10:40:30.360Z,76.60
2017-03-17T10:41:30.922Z,76.90
2017-03-17T10:42:30.679Z,77.20
2017-03-17T10:43:30.432Z,77.80
2017-03-17T10:44:30.164Z,77.70
2017-03-17T10:45:29.914Z,77.80
2017-03-17T10:46:29.658Z,78.20
2017-03-17T10:47:29.382Z,78.40
2017-03-17T10:48:29.894Z,78.00
2017-03-17T10:49:30.349Z,78.20
2017-03-17T10:50:30.111Z,77.50
2017-03-17T10:51:29.880Z,78.10
2017-03-17T10:52:29.655Z,77.60
2017-03-17T10:53:29.432Z,76.90
2017-03-17T10:54:29.210Z,76.80
2017-03-17T10:55:29.707Z,76.90
2017-03-17T10:56:29.476Z,77.40
2017-03-17T10:57:29.228Z,77.90
2017-03-17T10:58:29.747Z,77.00
2017-03-17T10:59:30.245Z,76.80
2017-03-17T11:00:30.287Z,77.50
2017-03-17T11:01:30.079Z,77.00
2017-03-17T11:02:30.575Z,76.50
2017-03-17T11:03:30.379Z,75.80
2017-03-17T11:04:30.125Z,75.90
2017-03-17T11:05:29.879Z,76.40
2017-03-17T11:06:29.657Z,76.40
2017-03-17T11:07:29.405Z,76.80
2017-03-17T11:08:29.890Z,76.70
2017-03-17T11:09:29.631Z,77.00
2017-03-17T11:10:29.394Z,77.20
2017-03-17T11:11:29.162Z,76.90
2017-03-17T11:12:28.923Z,77.10
2017-03-17T11:13:28.693Z,77.30
2017-03-17T11:14:29.167Z,77.30
2017-03-17T11:15:28.921Z,77.30
2017-03-17T11:16:28.680Z,77.10
2017-03-17T11:17:28.446Z,76.70
2017-03-17T11:18:28.949Z,77.30
2017-03-17T11:19:28.692Z,77.20
2017-03-17T11:20:28.556Z,77.50
2017-03-17T11:21:29.097Z,77.60
2017-03-17T11:22:28.898Z,77.10
2017-03-17T11:23:28.638Z,76.80
2017-03-17T11:24:29.145Z,76.80
2017-03-17T11:25:28.889Z,76.80
2017-03-17T11:26:28.697Z,76.40
2017-03-17T11:27:28.534Z,76.50
2017-03-17T11:28:28.343Z,77.40
2017-03-17T11:29:28.107Z,77.80
2017-03-17T11:30:28.587Z,77.90
2017-03-17T11:31:28.777Z,77.70
2017-03-17T11:32:28.614Z,78.50
2017-03-17T11:33:28.391Z,79.20
2017-03-17T11:34:28.138Z,79.40
2017-03-17T11:35:28.627Z,79.60
2017-03-17T11:36:28.363Z,80.00
2017-03-17T11:37:28.088Z,80.50
2017-03-17T11:38:27.828Z,80.70
2017-03-17T11:39:27.564Z,80.00
2017-03-17T11:40:27.304Z,80.60
2017-03-17T11:41:27.071Z,81.10
2017-03-17T11:42:27.600Z,81.30
2017-03-17T11:43:27.338Z,81.30
2017-03-17T11:44:27.153Z,81.00
2017-03-17T11:45:26.911Z,80.60
2017-03-17T11:46:26.808Z,80.40
2017-03-17T11:47:26.629Z,79.40
2017-03-17T11:48:26.870Z,78.90
2017-03-17T11:49:26.709Z,78.70
2017-03-17T11:50:27.203Z,79.00
2017-03-17T11:51:26.961Z,78.80
2017-03-17T11:52:26.758Z,79.00
2017-03-17T11:53:26.562Z,78.70
2017-03-17T11:54:26.303Z,78.60
2017-03-17T11:55:26.091Z,78.40
2017-03-17T11:56:25.924Z,79.30
2017-03-17T11:57:26.491Z,80.30
2017-03-17T11:58:26.254Z,80.40
2017-03-17T11:59:26.040Z,80.60
2017-03-17T12:00:25.799Z,81.10
2017-03-17T12:01:25.566Z,82.00
2017-03-17T12:02:25.323Z,81.50
2017-03-17T12:03:25.098Z,81.00
2017-03-17T12:04:24.837Z,80.80
2017-03-17T12:05:24.588Z,80.20
2017-03-17T12:06:24.411Z,80.90
2017-03-17T12:07:24.177Z,81.10
2017-03-17T12:08:23.909Z,81.40
2017-03-17T12:09:23.956Z,82.00
2017-03-17T12:10:23.727Z,82.00
2017-03-17T12:11:23.532Z,82.10
2017-03-17T12:12:23.285Z,82.40
2017-03-17T12:13:23.029Z,82.30
2017-03-17T12:14:22.787Z,81.80
2017-03-17T12:15:22.541Z,82.60
2017-03-17T12:16:22.305Z,85.00
2017-03-17T12:17:22.052Z,87.60
2017-03-17T12:18:21.840Z,88.60
2017-03-17T12:19:21.611Z,90.20
2017-03-17T12:20:21.445Z,90.70
2017-03-17T12:21:21.223Z,90.50
2017-03-17T12:22:21.015Z,91.60
2017-03-17T12:23:20.757Z,91.10
2017-03-17T12:24:20.533Z,91.40
2017-03-17T12:25:20.387Z,91.30
2017-03-17T12:26:21.260Z,91.40
2017-03-17T12:27:21.026Z,91.00
2017-03-17T12:28:20.775Z,91.20
2017-03-17T12:29:20.568Z,91.20
2017-03-17T12:30:20.322Z,91.80
2017-03-17T12:31:20.103Z,91.90
2017-03-17T12:32:19.969Z,91.70
2017-03-17T12:33:19.761Z,90.70
2017-03-17T12:34:19.531Z,90.30
2017-03-17T12:35:19.314Z,90.50
2017-03-17T12:36:19.808Z,90.10
2017-03-17T12:37:19.563Z,89.00
2017-03-17T12:38:19.404Z,88.80
2017-03-17T12:39:19.150Z,88.60
2017-03-17T12:40:18.933Z,89.20
2017-03-17T12:41:18.670Z,89.60
2017-03-17T12:42:18.505Z,89.70
2017-03-17T12:43:19.292Z,90.20
2017-03-17T12:44:19.078Z,90.30
2017-03-17T12:45:18.901Z,90.50
2017-03-17T12:46:18.707Z,91.10
2017-03-17T12:47:18.457Z,90.90
2017-03-17T12:48:18.231Z,91.00
2017-03-17T12:49:18.009Z,91.50
2017-03-17T12:50:17.843Z,91.80
2017-03-17T12:51:17.625Z,91.80